createdAt,value
2019-05-15T00:01:15.764Z,60.19
2019-05-15T00:03:49.286Z,60.27
2019-05-15T00:06:20.735Z,60.32
2019-05-15T00:08:52.525Z,60.10
2019-05-15T00:11:24.429Z,59.96
2019-05-15T00:13:58.800Z,60.01
2019-05-15T00:16:30.118Z,59.75
2019-05-15T00:19:02.005Z,59.90
2019-05-15T00:21:34.001Z,59.92
2019-05-15T00:24:05.876Z,59.92
2019-05-15T00:26:38.550Z,59.67
2019-05-15T00:29:15.818Z,59.65
2019-05-15T00:31:44.282Z,59.81
2019-05-15T00:34:18.125Z,59.88
2019-05-15T00:36:49.864Z,59.86
2019-05-15T00:39:21.759Z,59.86
2019-05-15T00:41:54.845Z,59.60
2019-05-15T00:44:28.021Z,59.79
2019-05-15T00:47:00.049Z,60.00
2019-05-15T00:49:32.042Z,59.80
2019-05-15T00:52:04.077Z,59.82
2019-05-15T00:54:35.971Z,59.69
2019-05-15T00:57:08.568Z,59.28
2019-05-15T00:59:40.505Z,59.19
2019-05-15T01:02:12.437Z,59.06
2019-05-15T01:04:44.332Z,59.16
2019-05-15T01:07:18.665Z,59.43
2019-05-15T01:09:49.820Z,59.43
2019-05-15T01:12:21.752Z,59.68
2019-05-15T01:14:53.669Z,60.26
2019-05-15T01:17:25.533Z,60.26
2019-05-15T01:19:58.842Z,60.43
2019-05-15T01:22:30.101Z,60.51
2019-05-15T01:25:01.883Z,60.88
2019-05-15T01:27:34.792Z,61.60
2019-05-15T01:30:09.081Z,62.12
2019-05-15T01:32:40.558Z,62.13
2019-05-15T01:35:12.824Z,62.44
2019-05-15T01:37:44.770Z,62.99
2019-05-15T01:40:18.212Z,63.14
2019-05-15T01:42:51.208Z,63.27
2019-05-15T01:45:23.142Z,63.19
2019-05-15T01:47:55.044Z,63.17
2019-05-15T01:50:29.780Z,63.22
2019-05-15T01:53:04.941Z,62.72
2019-05-15T01:55:39.116Z,63.03
2019-05-15T01:58:12.628Z,62.52
2019-05-15T02:00:44.756Z,62.76
2019-05-15T02:03:18.401Z,62.99
2019-05-15T02:05:50.866Z,62.62
2019-05-15T02:08:22.790Z,62.99
2019-05-15T02:10:54.765Z,62.67
2019-05-15T02:13:28.211Z,62.82
2019-05-15T02:16:00.179Z,63.32
2019-05-15T02:18:32.091Z,63.09
2019-05-15T02:21:06.682Z,63.29
2019-05-15T02:23:38.810Z,63.29
2019-05-15T02:26:11.943Z,63.24
2019-05-15T02:38:10.166Z,63.16
2019-05-15T02:40:42.936Z,62.74
2019-05-15T02:43:18.941Z,62.34
2019-05-15T02:46:22.886Z,62.51
2019-05-15T02:48:55.071Z,62.89
2019-05-15T02:51:29.993Z,62.97
2019-05-15T02:54:00.695Z,62.89
2019-05-15T02:56:32.837Z,62.95
2019-05-15T02:59:04.844Z,62.94
2019-05-15T03:01:40.054Z,62.48
2019-05-15T03:04:10.858Z,62.44
2019-05-15T03:06:42.879Z,62.85
2019-05-15T03:09:14.913Z,62.95
2019-05-15T03:11:49.395Z,62.75
2019-05-15T03:14:21.691Z,62.97
2019-05-15T03:16:55.453Z,62.72
2019-05-15T03:19:29.915Z,62.57
2019-05-15T03:22:01.183Z,62.63
2019-05-15T03:24:33.333Z,61.92
2019-05-15T03:27:05.230Z,62.20
2019-05-15T03:29:40.309Z,62.11
2019-05-15T03:32:25.225Z,61.74
2019-05-15T03:34:47.218Z,60.85
2019-05-15T03:37:22.291Z,61.57
2019-05-15T03:39:52.134Z,61.36
2019-05-15T03:42:24.279Z,61.01
2019-05-15T03:44:59.407Z,60.63
2019-05-15T03:48:31.447Z,60.85
2019-05-15T03:58:28.745Z,61.06
2019-05-15T04:01:00.553Z,60.92
2019-05-15T04:03:32.622Z,60.38
2019-05-15T04:06:04.568Z,60.62
2019-05-15T04:08:39.134Z,60.81
2019-05-15T04:11:10.522Z,61.03
2019-05-15T04:13:42.492Z,60.95
2019-05-15T04:16:14.525Z,61.22
2019-05-15T04:18:49.073Z,61.16
2019-05-15T04:21:21.370Z,60.35
2019-05-15T04:23:58.599Z,61.15
2019-05-15T04:26:33.560Z,60.52
2019-05-15T04:29:09.459Z,60.85
2019-05-15T04:31:51.933Z,60.42
2019-05-15T04:34:13.090Z,61.17
2019-05-15T04:36:45.052Z,61.28
2019-05-15T04:39:19.565Z,60.67
2019-05-15T04:41:52.968Z,60.31
2019-05-15T04:44:24.968Z,60.12
2019-05-15T04:46:59.489Z,60.58
2019-05-15T04:49:30.505Z,60.29
2019-05-15T04:52:03.874Z,59.76
2019-05-15T04:54:35.993Z,59.52
2019-05-15T04:57:09.272Z,59.85
2019-05-15T04:59:41.390Z,59.63
2019-05-15T05:02:19.320Z,59.72
2019-05-15T05:04:49.184Z,60.14
2019-05-15T05:07:22.808Z,59.45
2019-05-15T05:09:54.790Z,59.84
2019-05-15T05:12:28.936Z,59.88
2019-05-15T05:15:01.073Z,60.01
2019-05-15T05:17:33.174Z,60.27
2019-05-15T05:20:05.215Z,60.45
2019-05-15T05:22:39.247Z,60.66
2019-05-15T05:25:11.111Z,62.55
2019-05-15T05:27:42.374Z,63.76
2019-05-15T05:30:14.707Z,63.65
2019-05-15T05:32:45.875Z,63.67
2019-05-15T05:35:18.557Z,63.67
2019-05-15T05:37:49.936Z,63.82
2019-05-15T05:40:21.814Z,64.64
2019-05-15T05:42:53.868Z,65.45
2019-05-15T05:45:28.722Z,64.63
2019-05-15T05:48:00.304Z,64.50
2019-05-15T05:50:58.407Z,64.13
2019-05-15T05:53:30.424Z,64.70
2019-05-15T05:56:02.316Z,64.76
2019-05-15T05:58:34.198Z,64.25
2019-05-15T06:01:06.106Z,65.09
2019-05-15T06:03:38.546Z,65.54
2019-05-15T06:06:10.767Z,65.48
2019-05-15T06:08:42.620Z,67.02
2019-05-15T06:11:13.766Z,66.93
2019-05-15T06:13:44.927Z,65.92
2019-05-15T06:16:18.851Z,65.47
2019-05-15T06:18:50.322Z,65.40
2019-05-15T06:21:22.162Z,66.93
2019-05-15T06:23:56.018Z,66.78
2019-05-15T06:26:28.263Z,66.62
2019-05-15T06:29:00.380Z,67.27
2019-05-15T06:31:32.267Z,69.84
2019-05-15T06:34:08.143Z,68.28
2019-05-15T06:36:39.430Z,68.14
2019-05-15T06:39:11.304Z,69.32
2019-05-15T06:41:43.280Z,69.90
2019-05-15T06:44:15.215Z,68.98
2019-05-15T06:46:48.307Z,68.78
2019-05-15T06:49:20.359Z,69.02
2019-05-15T06:51:52.195Z,71.41
2019-05-15T06:54:24.272Z,72.53
2019-05-15T06:56:58.324Z,72.93
2019-05-15T06:59:30.790Z,72.73
2019-05-15T07:02:02.626Z,72.62
2019-05-15T07:04:34.511Z,74.67
2019-05-15T07:07:10.471Z,75.55
2019-05-15T07:09:39.394Z,75.86
2019-05-15T07:12:12.906Z,77.07
2019-05-15T07:14:44.960Z,76.59
2019-05-15T07:17:17.760Z,76.75
2019-05-15T07:19:51.187Z,75.32
2019-05-15T07:22:22.446Z,75.86
2019-05-15T07:24:54.518Z,74.92
2019-05-15T07:27:28.308Z,78.02
2019-05-15T07:30:00.012Z,76.07
2019-05-15T07:32:31.954Z,74.88
2019-05-15T07:35:03.832Z,76.41
2019-05-15T07:37:38.452Z,76.54
2019-05-15T07:40:12.029Z,77.86
2019-05-15T07:42:44.044Z,76.99
2019-05-15T07:45:19.682Z,77.23
2019-05-15T07:47:49.989Z,76.33
2019-05-15T07:50:22.007Z,75.61
2019-05-15T07:52:53.927Z,75.27
2019-05-15T07:55:25.861Z,75.01
2019-05-15T07:57:59.205Z,74.62
2019-05-15T08:00:32.003Z,74.13
2019-05-15T08:03:03.883Z,73.99
2019-05-15T08:05:38.082Z,73.63
2019-05-15T08:08:09.502Z,73.92
2019-05-15T08:10:42.970Z,71.84
2019-05-15T08:13:14.828Z,71.53
2019-05-15T08:15:48.651Z,70.70
2019-05-15T08:18:20.431Z,71.55
2019-05-15T08:20:52.381Z,70.49
2019-05-15T08:23:28.432Z,71.30
2019-05-15T08:25:59.757Z,70.99
2019-05-15T08:28:31.493Z,70.90
2019-05-15T08:31:06.488Z,73.15
2019-05-15T08:33:38.824Z,75.40
2019-05-15T08:36:10.535Z,73.91
2019-05-15T08:38:42.512Z,71.32
2019-05-15T08:41:15.648Z,70.89
2019-05-15T08:43:48.633Z,71.31
2019-05-15T08:46:20.625Z,71.01
2019-05-15T08:48:52.427Z,71.62
2019-05-15T08:51:24.442Z,71.65
2019-05-15T08:53:58.011Z,71.48
2019-05-15T08:56:29.940Z,71.48
2019-05-15T08:59:02.184Z,72.01
2019-05-15T09:01:34.047Z,70.11
2019-05-15T09:04:05.921Z,69.60
2019-05-15T09:06:41.297Z,70.37
2019-05-15T09:09:11.419Z,72.62
2019-05-15T09:11:43.319Z,70.83
2019-05-15T09:14:15.100Z,71.11
2019-05-15T09:16:48.934Z,71.42
2019-05-15T09:19:20.403Z,73.74
2019-05-15T09:21:52.429Z,72.47
2019-05-15T09:24:24.230Z,70.95
2019-05-15T09:26:59.361Z,70.43
2019-05-15T09:29:30.541Z,70.83
2019-05-15T09:32:01.712Z,71.99
2019-05-15T09:34:46.730Z,73.21
2019-05-15T09:37:08.550Z,74.18
2019-05-15T09:39:40.560Z,73.87
2019-05-15T09:42:12.404Z,72.91
2019-05-15T09:44:44.400Z,72.61
2019-05-15T09:47:19.009Z,72.31
2019-05-15T09:49:50.915Z,72.03
2019-05-15T09:52:25.557Z,72.61
2019-05-15T09:54:59.317Z,73.19
2019-05-15T09:57:31.472Z,70.02
2019-05-15T10:00:03.343Z,71.19
2019-05-15T10:02:35.363Z,69.75
2019-05-15T10:05:11.101Z,69.11
2019-05-15T10:07:42.063Z,69.41
2019-05-15T10:10:14.832Z,69.42
2019-05-15T10:12:49.630Z,67.65
2019-05-15T10:15:23.747Z,67.45
2019-05-15T10:18:02.639Z,65.85
2019-05-15T10:20:34.536Z,66.84
2019-05-15T10:23:08.813Z,66.60
2019-05-15T10:25:40.799Z,68.92
2019-05-15T10:28:18.665Z,70.96
2019-05-15T10:30:50.063Z,69.88
2019-05-15T10:33:24.928Z,70.24
2019-05-15T10:35:59.034Z,71.15
2019-05-15T10:38:32.028Z,72.98
2019-05-15T10:41:09.366Z,72.38
2019-05-15T10:43:46.287Z,71.42
2019-05-15T10:46:14.100Z,69.86
2019-05-15T10:48:49.241Z,69.75
2019-05-15T10:51:22.410Z,69.08
2019-05-15T10:53:54.279Z,72.17
2019-05-15T10:56:28.961Z,72.18
2019-05-15T10:59:00.110Z,70.84
2019-05-15T11:01:38.598Z,70.50
2019-05-15T11:04:10.117Z,70.52
2019-05-15T11:06:41.920Z,72.01
2019-05-15T11:09:13.658Z,70.72
2019-05-15T11:11:45.503Z,69.55
2019-05-15T11:14:18.447Z,70.10
2019-05-15T11:16:50.411Z,69.16
2019-05-15T11:19:22.186Z,69.47
2019-05-15T11:21:54.029Z,70.33
2019-05-15T11:24:28.270Z,70.02
2019-05-15T11:26:59.593Z,70.45
2019-05-15T11:29:31.577Z,72.55
2019-05-15T11:32:08.719Z,70.61
2019-05-15T11:34:38.433Z,70.62
2019-05-15T11:37:10.268Z,70.33
2019-05-15T11:39:45.856Z,70.33
2019-05-15T11:42:17.304Z,71.26
2019-05-15T11:44:49.364Z,72.14
2019-05-15T11:47:21.248Z,71.55
2019-05-15T11:49:53.123Z,70.99
2019-05-15T11:52:29.502Z,68.31
2019-05-15T11:55:01.617Z,68.32
2019-05-15T11:57:42.331Z,67.41
2019-05-15T12:00:26.431Z,66.84
2019-05-15T12:02:54.662Z,66.15
2019-05-15T12:05:31.438Z,65.75
2019-05-15T12:08:08.493Z,67.40
2019-05-15T12:10:39.771Z,67.27
2019-05-15T12:13:11.902Z,66.74
2019-05-15T12:15:44.549Z,65.77
2019-05-15T12:18:15.765Z,64.84
2019-05-15T12:20:51.724Z,64.31
2019-05-15T12:23:22.976Z,66.83
2019-05-15T12:25:54.776Z,65.37
2019-05-15T12:28:29.282Z,64.69
2019-05-15T12:31:02.270Z,64.32
2019-05-15T12:33:34.332Z,64.85
2019-05-15T12:36:10.609Z,65.24
2019-05-15T12:38:42.660Z,63.93
2019-05-15T13:01:41.790Z,60.85
2019-05-15T13:04:13.569Z,61.17
2019-05-15T13:06:49.389Z,59.46
2019-05-15T13:09:19.376Z,60.36
2019-05-15T13:11:51.202Z,60.73
2019-05-15T13:14:22.400Z,60.39
2019-05-15T13:16:53.559Z,59.67
2019-05-15T13:19:24.646Z,60.06
2019-05-15T13:21:57.920Z,59.44
2019-05-15T13:24:29.896Z,61.42
2019-05-15T13:27:01.758Z,60.92
2019-05-15T13:29:33.584Z,61.33
2019-05-15T13:32:07.910Z,61.53
2019-05-15T13:34:38.994Z,60.20
2019-05-15T13:37:26.402Z,60.12
2019-05-15T13:39:48.572Z,60.93
2019-05-15T13:42:20.417Z,60.99
2019-05-15T13:44:52.308Z,60.31
2019-05-15T13:47:24.186Z,60.16
2019-05-15T13:49:58.592Z,60.36
2019-05-15T13:52:30.603Z,59.72
2019-05-15T13:55:02.479Z,60.13
2019-05-15T13:57:35.306Z,60.35
2019-05-15T14:00:08.706Z,60.96
2019-05-15T14:03:01.902Z,61.59
2019-05-15T14:05:34.419Z,61.64
2019-05-15T14:08:06.820Z,60.60
2019-05-15T14:10:38.739Z,59.79
2019-05-15T14:13:10.863Z,61.60
2019-05-15T14:15:42.939Z,60.88
2019-05-15T14:18:15.139Z,59.24
2019-05-15T14:20:49.032Z,58.50
2019-05-15T14:23:21.448Z,58.51
2019-05-15T14:25:52.920Z,59.52
2019-05-15T16:22:23.593Z,60.46
2019-05-15T16:24:58.704Z,60.88
2019-05-15T16:28:22.475Z,60.97
2019-05-15T16:30:53.633Z,61.21
2019-05-15T16:44:24.753Z,62.89
2019-05-15T16:48:09.491Z,62.86
2019-05-15T16:51:49.397Z,62.92
2019-05-15T17:01:18.578Z,63.60
2019-05-15T17:03:49.760Z,64.00
2019-05-15T17:06:21.884Z,63.95
2019-05-15T17:08:54.329Z,62.76
2019-05-15T17:11:25.506Z,63.16
2019-05-15T17:13:59.192Z,62.64
2019-05-15T17:16:31.140Z,62.63
2019-05-15T17:19:03.583Z,62.70
2019-05-15T17:21:36.651Z,62.39
2019-05-15T17:24:08.873Z,62.49
2019-05-15T17:26:40.748Z,62.48
2019-05-15T17:29:12.259Z,62.51
2019-05-15T17:31:44.470Z,62.87
2019-05-15T17:34:18.030Z,62.74
2019-05-15T17:36:50.055Z,62.59
2019-05-15T17:39:33.627Z,62.67
2019-05-15T17:41:55.209Z,63.01
2019-05-15T17:44:28.687Z,62.59
2019-05-15T17:47:01.402Z,62.37
2019-05-15T17:49:32.852Z,62.05
2019-05-15T17:52:04.782Z,62.22
2019-05-15T17:54:38.011Z,62.58
2019-05-15T17:57:09.634Z,62.23
2019-05-15T17:59:41.444Z,61.82
2019-05-15T18:02:12.772Z,61.78
2019-05-15T18:04:44.203Z,61.92
2019-05-15T18:07:16.065Z,62.52
2019-05-15T18:09:53.935Z,63.09
2019-05-15T18:12:21.040Z,63.38
2019-05-15T18:14:53.080Z,63.99
2019-05-15T18:17:25.076Z,63.33
2019-05-15T18:19:58.066Z,63.71
2019-05-15T18:22:29.581Z,64.42
2019-05-15T18:25:00.900Z,64.54
2019-05-15T18:27:32.841Z,64.19
2019-05-15T18:30:05.141Z,63.98
2019-05-15T18:32:39.098Z,64.16
2019-05-15T18:35:09.837Z,64.59
2019-05-15T18:37:42.105Z,64.54
2019-05-15T18:40:14.424Z,64.49
2019-05-15T18:42:45.703Z,65.05
2019-05-15T18:45:18.408Z,65.14
2019-05-15T18:47:49.616Z,65.37
2019-05-15T18:50:22.060Z,65.45
2019-05-15T18:52:53.445Z,65.53
2019-05-15T18:55:24.625Z,65.29
2019-05-15T18:57:58.393Z,65.74
2019-05-15T19:00:29.917Z,65.83
2019-05-15T19:03:01.754Z,65.50
2019-05-15T19:05:33.679Z,65.57
2019-05-15T19:08:04.962Z,65.73
2019-05-15T19:10:38.606Z,65.70
2019-05-15T19:13:10.053Z,65.79
2019-05-15T19:15:42.364Z,65.94
2019-05-15T19:18:14.592Z,66.18
2019-05-15T19:20:48.540Z,66.21
2019-05-15T19:23:20.086Z,66.53
2019-05-15T19:25:52.425Z,66.69
2019-05-15T19:28:24.020Z,67.09
2019-05-15T19:30:58.351Z,66.84
2019-05-15T19:33:36.573Z,66.84
2019-05-15T19:36:02.778Z,66.65
2019-05-15T19:38:34.746Z,66.79
2019-05-15T19:41:06.779Z,67.08
2019-05-15T19:43:38.721Z,68.02
2019-05-15T19:46:13.596Z,68.24
2019-05-15T19:48:45.272Z,68.43
2019-05-15T19:51:18.325Z,68.97
2019-05-15T19:53:50.290Z,68.76
2019-05-15T19:56:22.219Z,69.57
2019-05-15T19:58:54.138Z,69.93
2019-05-15T20:01:28.036Z,70.95
2019-05-15T20:03:59.475Z,70.84
2019-05-15T20:06:31.661Z,71.10
2019-05-15T20:09:03.071Z,71.11
2019-05-15T20:11:35.885Z,71.76
2019-05-15T20:14:07.849Z,71.62
2019-05-15T22:21:11.005Z,77.85
2019-05-15T22:23:43.260Z,78.95
2019-05-15T22:26:18.618Z,80.82
2019-05-15T22:28:51.404Z,81.82
2019-05-15T22:31:26.572Z,82.03
2019-05-15T22:33:58.692Z,81.31
2019-05-15T22:36:30.094Z,81.77
2019-05-15T22:39:02.530Z,82.65
2019-05-15T22:41:38.737Z,82.99
2019-05-15T22:44:11.062Z,83.47
2019-05-15T22:46:42.522Z,83.58
2019-05-15T22:49:14.883Z,83.49
2019-05-15T22:51:48.630Z,83.70
2019-05-15T22:54:20.808Z,84.23
2019-05-15T22:56:52.965Z,84.98
2019-05-15T22:59:25.018Z,85.12
2019-05-15T23:02:00.237Z,84.62
2019-05-15T23:04:31.961Z,85.50
2019-05-15T23:07:05.044Z,85.71
2019-05-15T23:09:38.410Z,85.90
2019-05-15T23:12:11.821Z,86.05
2019-05-15T23:14:45.272Z,87.33
2019-05-15T23:17:17.302Z,88.17
2019-05-15T23:19:51.249Z,88.41
2019-05-15T23:22:24.508Z,89.12
2019-05-15T23:24:58.401Z,89.62
2019-05-15T23:27:30.189Z,90.16
2019-05-15T23:30:02.197Z,90.28
2019-05-15T23:32:35.185Z,90.37
2019-05-15T23:35:10.462Z,90.73
2019-05-15T23:37:42.485Z,91.94
2019-05-15T23:40:15.027Z,92.32
2019-05-15T23:42:49.133Z,92.64
2019-05-15T23:45:20.693Z,92.89
2019-05-15T23:47:52.722Z,94.04
2019-05-15T23:50:24.779Z,95.18
2019-05-15T23:52:58.330Z,96.27
2019-05-15T23:55:30.541Z,95.60
2019-05-15T23:58:02.481Z,96.27
